sensor_id;sensor_type;location;lat;lon;timestamp;P1;durP1;ratioP1;P2;durP2;ratioP2
16466;SDS011;8344;47.560;9.710;2023-04-23T00:02:10;0.40;;;0.40;;
16466;SDS011;8344;47.560;9.710;2023-04-23T00:04:36;0.40;;;0.40;;
16466;SDS011;8344;47.560;9.710;2023-04-23T00:07:02;0.20;;;0.20;;
16466;SDS011;8344;47.560;9.710;2023-04-23T00:09:29;0.30;;;0.30;;
16466;SDS011;8344;47.560;9.710;2023-04-23T00:11:56;0.30;;;0.30;;
16466;SDS011;8344;47.560;9.710;2023-04-23T00:14:22;0.30;;;0.30;;
16466;SDS011;8344;47.560;9.710;2023-04-23T00:16:47;0.38;;;0.38;;
16466;SDS011;8344;47.560;9.710;2023-04-23T00:19:13;0.28;;;0.28;;
16466;SDS011;8344;47.560;9.710;2023-04-23T00:21:38;0.25;;;0.25;;
16466;SDS011;8344;47.560;9.710;2023-04-23T00:24:03;0.40;;;0.40;;
16466;SDS011;8344;47.560;9.710;2023-04-23T00:26:29;0.32;;;0.32;;
16466;SDS011;8344;47.560;9.710;2023-04-23T00:28:54;0.30;;;0.30;;
16466;SDS011;8344;47.560;9.710;2023-04-23T00:31:19;0.20;;;0.20;;
16466;SDS011;8344;47.560;9.710;2023-04-23T00:33:46;0.32;;;0.32;;
16466;SDS011;8344;47.560;9.710;2023-04-23T00:36:11;0.30;;;0.30;;
16466;SDS011;8344;47.560;9.710;2023-04-23T00:38:37;0.32;;;0.32;;
16466;SDS011;8344;47.560;9.710;2023-04-23T00:41:02;0.35;;;0.35;;
16466;SDS011;8344;47.560;9.710;2023-04-23T00:43:27;0.40;;;0.40;;
16466;SDS011;8344;47.560;9.710;2023-04-23T00:45:53;0.30;;;0.30;;
16466;SDS011;8344;47.560;9.710;2023-04-23T00:48:18;0.30;;;0.30;;
16466;SDS011;8344;47.560;9.710;2023-04-23T00:50:45;0.50;;;0.50;;
16466;SDS011;8344;47.560;9.710;2023-04-23T00:53:10;0.30;;;0.30;;
16466;SDS011;8344;47.560;9.710;2023-04-23T00:55:38;0.30;;;0.30;;
16466;SDS011;8344;47.560;9.710;2023-04-23T00:58:04;0.30;;;0.30;;
16466;SDS011;8344;47.560;9.710;2023-04-23T01:00:30;0.40;;;0.40;;
16466;SDS011;8344;47.560;9.710;2023-04-23T01:02:55;0.28;;;0.28;;
16466;SDS011;8344;47.560;9.710;2023-04-23T01:05:22;0.50;;;0.50;;
16466;SDS011;8344;47.560;9.710;2023-04-23T01:07:47;0.30;;;0.30;;
16466;SDS011;8344;47.560;9.710;2023-04-23T01:10:13;0.30;;;0.30;;
16466;SDS011;8344;47.560;9.710;2023-04-23T01:12:38;0.30;;;0.30;;
16466;SDS011;8344;47.560;9.710;2023-04-23T01:15:04;0.28;;;0.28;;
16466;SDS011;8344;47.560;9.710;2023-04-23T01:17:30;0.40;;;0.40;;
16466;SDS011;8344;47.560;9.710;2023-04-23T01:19:56;0.30;;;0.30;;
16466;SDS011;8344;47.560;9.710;2023-04-23T01:22:21;0.50;;;0.50;;
16466;SDS011;8344;47.560;9.710;2023-04-23T01:24:47;0.30;;;0.30;;
16466;SDS011;8344;47.560;9.710;2023-04-23T01:27:12;0.30;;;0.30;;
16466;SDS011;8344;47.560;9.710;2023-04-23T01:29:38;0.22;;;0.22;;
16466;SDS011;8344;47.560;9.710;2023-04-23T01:32:04;0.40;;;0.40;;
16466;SDS011;8344;47.560;9.710;2023-04-23T01:34:30;0.40;;;0.40;;
16466;SDS011;8344;47.560;9.710;2023-04-23T01:36:56;0.50;;;0.50;;
16466;SDS011;8344;47.560;9.710;2023-04-23T01:39:22;0.40;;;0.40;;
16466;SDS011;8344;47.560;9.710;2023-04-23T01:41:47;0.47;;;0.47;;
16466;SDS011;8344;47.560;9.710;2023-04-23T01:44:12;0.50;;;0.50;;
16466;SDS011;8344;47.560;9.710;2023-04-23T01:46:38;0.50;;;0.50;;
16466;SDS011;8344;47.560;9.710;2023-04-23T01:49:03;0.38;;;0.38;;
16466;SDS011;8344;47.560;9.710;2023-04-23T01:51:28;0.50;;;0.50;;
16466;SDS011;8344;47.560;9.710;2023-04-23T01:53:54;0.50;;;0.50;;
16466;SDS011;8344;47.560;9.710;2023-04-23T01:56:21;0.30;;;0.30;;
16466;SDS011;8344;47.560;9.710;2023-04-23T01:58:49;0.43;;;0.43;;
16466;SDS011;8344;47.560;9.710;2023-04-23T02:01:15;0.40;;;0.40;;
16466;SDS011;8344;47.560;9.710;2023-04-23T02:03:41;0.38;;;0.38;;
16466;SDS011;8344;47.560;9.710;2023-04-23T02:06:06;0.50;;;0.50;;
16466;SDS011;8344;47.560;9.710;2023-04-23T02:08:31;0.30;;;0.30;;
16466;SDS011;8344;47.560;9.710;2023-04-23T02:10:57;0.30;;;0.30;;
16466;SDS011;8344;47.560;9.710;2023-04-23T02:13:22;0.30;;;0.30;;
16466;SDS011;8344;47.560;9.710;2023-04-23T02:15:47;0.43;;;0.43;;
16466;SDS011;8344;47.560;9.710;2023-04-23T02:18:13;0.30;;;0.30;;
16466;SDS011;8344;47.560;9.710;2023-04-23T02:20:38;0.30;;;0.30;;
16466;SDS011;8344;47.560;9.710;2023-04-23T02:23:06;0.20;;;0.20;;
16466;SDS011;8344;47.560;9.710;2023-04-23T02:25:31;0.22;;;0.22;;
16466;SDS011;8344;47.560;9.710;2023-04-23T02:27:57;0.45;;;0.45;;
16466;SDS011;8344;47.560;9.710;2023-04-23T02:30:25;0.50;;;0.50;;
16466;SDS011;8344;47.560;9.710;2023-04-23T02:32:50;0.30;;;0.30;;
16466;SDS011;8344;47.560;9.710;2023-04-23T02:35:16;0.40;;;0.40;;
16466;SDS011;8344;47.560;9.710;2023-04-23T02:37:41;0.40;;;0.40;;
16466;SDS011;8344;47.560;9.710;2023-04-23T02:40:07;0.38;;;0.38;;
16466;SDS011;8344;47.560;9.710;2023-04-23T02:42:33;0.40;;;0.40;;
16466;SDS011;8344;47.560;9.710;2023-04-23T02:44:58;0.40;;;0.40;;
16466;SDS011;8344;47.560;9.710;2023-04-23T02:47:23;0.30;;;0.30;;
16466;SDS011;8344;47.560;9.710;2023-04-23T02:49:49;0.22;;;0.22;;
16466;SDS011;8344;47.560;9.710;2023-04-23T02:52:14;0.40;;;0.40;;
16466;SDS011;8344;47.560;9.710;2023-04-23T02:54:39;0.40;;;0.40;;
16466;SDS011;8344;47.560;9.710;2023-04-23T02:57:04;0.20;;;0.20;;
16466;SDS011;8344;47.560;9.710;2023-04-23T02:59:30;0.20;;;0.20;;
16466;SDS011;8344;47.560;9.710;2023-04-23T03:01:55;0.30;;;0.30;;
16466;SDS011;8344;47.560;9.710;2023-04-23T03:04:21;0.30;;;0.30;;
16466;SDS011;8344;47.560;9.710;2023-04-23T03:06:46;0.50;;;0.50;;
16466;SDS011;8344;47.560;9.710;2023-04-23T03:09:11;0.40;;;0.40;;
16466;SDS011;8344;47.560;9.710;2023-04-23T03:11:37;0.50;;;0.50;;
16466;SDS011;8344;47.560;9.710;2023-04-23T03:14:02;0.40;;;0.40;;
16466;SDS011;8344;47.560;9.710;2023-04-23T03:16:28;0.40;;;0.40;;
16466;SDS011;8344;47.560;9.710;2023-04-23T03:18:54;0.50;;;0.50;;
16466;SDS011;8344;47.560;9.710;2023-04-23T03:21:19;0.38;;;0.38;;
16466;SDS011;8344;47.560;9.710;2023-04-23T03:23:44;0.50;;;0.50;;
16466;SDS011;8344;47.560;9.710;2023-04-23T03:26:10;0.30;;;0.30;;
16466;SDS011;8344;47.560;9.710;2023-04-23T03:28:35;0.50;;;0.50;;
16466;SDS011;8344;47.560;9.710;2023-04-23T03:31:00;0.30;;;0.30;;
16466;SDS011;8344;47.560;9.710;2023-04-23T03:33:26;0.47;;;0.47;;
16466;SDS011;8344;47.560;9.710;2023-04-23T03:35:51;0.50;;;0.50;;
16466;SDS011;8344;47.560;9.710;2023-04-23T03:38:16;0.40;;;0.40;;
16466;SDS011;8344;47.560;9.710;2023-04-23T03:40:41;0.40;;;0.40;;
16466;SDS011;8344;47.560;9.710;2023-04-23T03:43:07;0.50;;;0.50;;
16466;SDS011;8344;47.560;9.710;2023-04-23T03:45:32;0.45;;;0.45;;
16466;SDS011;8344;47.560;9.710;2023-04-23T03:47:57;0.32;;;0.32;;
16466;SDS011;8344;47.560;9.710;2023-04-23T03:50:23;0.40;;;0.40;;
16466;SDS011;8344;47.560;9.710;2023-04-23T03:52:48;0.30;;;0.30;;
16466;SDS011;8344;47.560;9.710;2023-04-23T03:55:13;0.30;;;0.30;;
16466;SDS011;8344;47.560;9.710;2023-04-23T03:57:39;0.30;;;0.30;;
16466;SDS011;8344;47.560;9.710;2023-04-23T04:00:04;0.40;;;0.40;;
16466;SDS011;8344;47.560;9.710;2023-04-23T04:02:36;0.40;;;0.40;;
16466;SDS011;8344;47.560;9.710;2023-04-23T04:05:02;0.40;;;0.40;;
16466;SDS011;8344;47.560;9.710;2023-04-23T04:07:28;0.40;;;0.40;;
16466;SDS011;8344;47.560;9.710;2023-04-23T04:09:53;0.47;;;0.47;;
16466;SDS011;8344;47.560;9.710;2023-04-23T04:12:18;0.40;;;0.40;;
16466;SDS011;8344;47.560;9.710;2023-04-23T04:14:44;0.30;;;0.30;;
16466;SDS011;8344;47.560;9.710;2023-04-23T04:17:09;0.40;;;0.40;;
16466;SDS011;8344;47.560;9.710;2023-04-23T04:19:36;0.40;;;0.40;;
16466;SDS011;8344;47.560;9.710;2023-04-23T04:22:01;0.50;;;0.50;;
16466;SDS011;8344;47.560;9.710;2023-04-23T04:24:27;0.50;;;0.50;;
16466;SDS011;8344;47.560;9.710;2023-04-23T04:26:56;0.30;;;0.30;;
16466;SDS011;8344;47.560;9.710;2023-04-23T04:29:22;0.40;;;0.40;;
16466;SDS011;8344;47.560;9.710;2023-04-23T04:31:47;0.40;;;0.40;;
16466;SDS011;8344;47.560;9.710;2023-04-23T04:34:13;0.40;;;0.40;;
16466;SDS011;8344;47.560;9.710;2023-04-23T04:36:38;0.50;;;0.50;;
16466;SDS011;8344;47.560;9.710;2023-04-23T04:39:05;0.43;;;0.43;;
16466;SDS011;8344;47.560;9.710;2023-04-23T04:41:31;0.30;;;0.30;;
16466;SDS011;8344;47.560;9.710;2023-04-23T04:43:57;0.40;;;0.40;;
16466;SDS011;8344;47.560;9.710;2023-04-23T04:46:23;0.30;;;0.30;;
16466;SDS011;8344;47.560;9.710;2023-04-23T04:48:50;0.32;;;0.32;;
16466;SDS011;8344;47.560;9.710;2023-04-23T04:51:15;0.50;;;0.50;;
16466;SDS011;8344;47.560;9.710;2023-04-23T04:53:41;0.40;;;0.40;;
16466;SDS011;8344;47.560;9.710;2023-04-23T04:56:06;0.50;;;0.50;;
16466;SDS011;8344;47.560;9.710;2023-04-23T04:58:32;0.40;;;0.40;;
16466;SDS011;8344;47.560;9.710;2023-04-23T05:00:57;0.40;;;0.40;;
16466;SDS011;8344;47.560;9.710;2023-04-23T05:03:23;0.35;;;0.35;;
16466;SDS011;8344;47.560;9.710;2023-04-23T05:05:48;0.40;;;0.40;;
16466;SDS011;8344;47.560;9.710;2023-04-23T05:08:14;0.30;;;0.30;;
16466;SDS011;8344;47.560;9.710;2023-04-23T05:10:41;0.40;;;0.40;;
16466;SDS011;8344;47.560;9.710;2023-04-23T05:13:07;0.40;;;0.40;;
16466;SDS011;8344;47.560;9.710;2023-04-23T05:15:32;0.40;;;0.40;;
16466;SDS011;8344;47.560;9.710;2023-04-23T05:17:57;0.38;;;0.38;;
16466;SDS011;8344;47.560;9.710;2023-04-23T05:20:23;0.40;;;0.40;;
16466;SDS011;8344;47.560;9.710;2023-04-23T05:22:48;0.40;;;0.40;;
16466;SDS011;8344;47.560;9.710;2023-04-23T05:25:13;0.40;;;0.40;;
16466;SDS011;8344;47.560;9.710;2023-04-23T05:27:39;0.60;;;0.60;;
16466;SDS011;8344;47.560;9.710;2023-04-23T05:30:05;0.40;;;0.40;;
16466;SDS011;8344;47.560;9.710;2023-04-23T05:32:32;0.40;;;0.40;;
16466;SDS011;8344;47.560;9.710;2023-04-23T05:34:57;0.50;;;0.50;;
16466;SDS011;8344;47.560;9.710;2023-04-23T05:37:27;0.30;;;0.30;;
16466;SDS011;8344;47.560;9.710;2023-04-23T05:39:52;0.47;;;0.47;;
16466;SDS011;8344;47.560;9.710;2023-04-23T05:42:17;0.30;;;0.30;;
16466;SDS011;8344;47.560;9.710;2023-04-23T05:44:43;0.38;;;0.38;;
16466;SDS011;8344;47.560;9.710;2023-04-23T05:47:09;0.30;;;0.30;;
16466;SDS011;8344;47.560;9.710;2023-04-23T05:49:35;0.30;;;0.30;;
16466;SDS011;8344;47.560;9.710;2023-04-23T05:52:00;0.40;;;0.40;;
16466;SDS011;8344;47.560;9.710;2023-04-23T05:54:27;0.40;;;0.40;;
16466;SDS011;8344;47.560;9.710;2023-04-23T05:56:52;0.40;;;0.40;;
16466;SDS011;8344;47.560;9.710;2023-04-23T05:59:18;0.45;;;0.45;;
16466;SDS011;8344;47.560;9.710;2023-04-23T06:01:43;0.50;;;0.50;;
16466;SDS011;8344;47.560;9.710;2023-04-23T06:04:08;0.57;;;0.57;;
16466;SDS011;8344;47.560;9.710;2023-04-23T06:06:34;0.50;;;0.50;;
16466;SDS011;8344;47.560;9.710;2023-04-23T06:08:59;0.30;;;0.30;;
16466;SDS011;8344;47.560;9.710;2023-04-23T06:11:24;0.52;;;0.52;;
16466;SDS011;8344;47.560;9.710;2023-04-23T06:13:49;0.50;;;0.50;;
16466;SDS011;8344;47.560;9.710;2023-04-23T06:16:15;0.30;;;0.30;;
16466;SDS011;8344;47.560;9.710;2023-04-23T06:18:40;0.40;;;0.40;;
16466;SDS011;8344;47.560;9.710;2023-04-23T06:21:05;0.35;;;0.35;;
16466;SDS011;8344;47.560;9.710;2023-04-23T06:23:31;0.50;;;0.50;;
16466;SDS011;8344;47.560;9.710;2023-04-23T06:25:56;0.30;;;0.30;;
16466;SDS011;8344;47.560;9.710;2023-04-23T06:28:22;0.30;;;0.30;;
16466;SDS011;8344;47.560;9.710;2023-04-23T06:30:47;0.50;;;0.50;;
16466;SDS011;8344;47.560;9.710;2023-04-23T06:33:12;0.40;;;0.40;;
16466;SDS011;8344;47.560;9.710;2023-04-23T06:35:38;0.30;;;0.30;;
16466;SDS011;8344;47.560;9.710;2023-04-23T06:38:03;0.50;;;0.50;;
16466;SDS011;8344;47.560;9.710;2023-04-23T06:40:28;0.40;;;0.40;;
16466;SDS011;8344;47.560;9.710;2023-04-23T06:42:54;0.30;;;0.30;;
16466;SDS011;8344;47.560;9.710;2023-04-23T06:45:19;0.40;;;0.40;;
16466;SDS011;8344;47.560;9.710;2023-04-23T06:47:45;0.40;;;0.40;;
16466;SDS011;8344;47.560;9.710;2023-04-23T06:50:10;0.40;;;0.40;;
16466;SDS011;8344;47.560;9.710;2023-04-23T06:52:35;0.30;;;0.30;;
16466;SDS011;8344;47.560;9.710;2023-04-23T06:55:01;0.40;;;0.40;;
16466;SDS011;8344;47.560;9.710;2023-04-23T06:57:26;0.30;;;0.30;;
16466;SDS011;8344;47.560;9.710;2023-04-23T06:59:52;0.40;;;0.40;;
16466;SDS011;8344;47.560;9.710;2023-04-23T07:02:17;0.30;;;0.30;;
16466;SDS011;8344;47.560;9.710;2023-04-23T07:04:43;0.30;;;0.30;;
16466;SDS011;8344;47.560;9.710;2023-04-23T07:07:08;0.30;;;0.30;;
16466;SDS011;8344;47.560;9.710;2023-04-23T07:09:34;0.30;;;0.30;;
16466;SDS011;8344;47.560;9.710;2023-04-23T07:11:59;0.40;;;0.40;;
16466;SDS011;8344;47.560;9.710;2023-04-23T07:14:25;0.30;;;0.30;;
16466;SDS011;8344;47.560;9.710;2023-04-23T07:16:50;0.40;;;0.40;;
16466;SDS011;8344;47.560;9.710;2023-04-23T07:19:16;0.32;;;0.32;;
16466;SDS011;8344;47.560;9.710;2023-04-23T07:21:41;0.30;;;0.30;;
16466;SDS011;8344;47.560;9.710;2023-04-23T07:24:06;0.30;;;0.30;;
16466;SDS011;8344;47.560;9.710;2023-04-23T07:26:32;0.30;;;0.30;;
16466;SDS011;8344;47.560;9.710;2023-04-23T07:28:58;0.30;;;0.30;;
16466;SDS011;8344;47.560;9.710;2023-04-23T07:31:23;0.30;;;0.30;;
16466;SDS011;8344;47.560;9.710;2023-04-23T07:33:49;0.32;;;0.32;;
16466;SDS011;8344;47.560;9.710;2023-04-23T07:36:14;0.30;;;0.30;;
16466;SDS011;8344;47.560;9.710;2023-04-23T07:38:39;0.20;;;0.20;;
16466;SDS011;8344;47.560;9.710;2023-04-23T07:41:05;0.32;;;0.32;;
16466;SDS011;8344;47.560;9.710;2023-04-23T07:43:30;0.30;;;0.30;;
16466;SDS011;8344;47.560;9.710;2023-04-23T07:45:55;0.32;;;0.32;;
16466;SDS011;8344;47.560;9.710;2023-04-23T07:48:21;0.20;;;0.20;;
16466;SDS011;8344;47.560;9.710;2023-04-23T07:50:46;0.20;;;0.20;;
16466;SDS011;8344;47.560;9.710;2023-04-23T07:53:11;0.40;;;0.40;;
16466;SDS011;8344;47.560;9.710;2023-04-23T07:55:37;0.30;;;0.30;;
16466;SDS011;8344;47.560;9.710;2023-04-23T07:58:02;0.25;;;0.25;;
16466;SDS011;8344;47.560;9.710;2023-04-23T08:00:27;0.30;;;0.30;;
16466;SDS011;8344;47.560;9.710;2023-04-23T08:02:52;0.30;;;0.30;;
16466;SDS011;8344;47.560;9.710;2023-04-23T08:05:18;0.40;;;0.40;;
16466;SDS011;8344;47.560;9.710;2023-04-23T08:07:43;0.40;;;0.40;;
16466;SDS011;8344;47.560;9.710;2023-04-23T08:10:08;0.25;;;0.25;;
16466;SDS011;8344;47.560;9.710;2023-04-23T08:12:34;0.38;;;0.38;;
16466;SDS011;8344;47.560;9.710;2023-04-23T08:15:00;0.40;;;0.40;;
16466;SDS011;8344;47.560;9.710;2023-04-23T08:17:26;0.40;;;0.40;;
16466;SDS011;8344;47.560;9.710;2023-04-23T08:19:51;0.50;;;0.50;;
16466;SDS011;8344;47.560;9.710;2023-04-23T08:22:16;0.30;;;0.30;;
16466;SDS011;8344;47.560;9.710;2023-04-23T08:24:42;0.30;;;0.30;;
16466;SDS011;8344;47.560;9.710;2023-04-23T08:27:09;0.25;;;0.25;;
16466;SDS011;8344;47.560;9.710;2023-04-23T08:29:35;0.40;;;0.40;;
16466;SDS011;8344;47.560;9.710;2023-04-23T08:32:00;0.35;;;0.35;;
16466;SDS011;8344;47.560;9.710;2023-04-23T08:34:25;0.30;;;0.30;;
16466;SDS011;8344;47.560;9.710;2023-04-23T08:36:51;0.30;;;0.30;;
16466;SDS011;8344;47.560;9.710;2023-04-23T08:39:16;0.30;;;0.30;;
16466;SDS011;8344;47.560;9.710;2023-04-23T08:41:41;0.40;;;0.40;;
16466;SDS011;8344;47.560;9.710;2023-04-23T08:44:18;0.25;;;0.25;;
16466;SDS011;8344;47.560;9.710;2023-04-23T08:46:46;0.20;;;0.20;;
16466;SDS011;8344;47.560;9.710;2023-04-23T08:49:15;0.20;;;0.20;;
16466;SDS011;8344;47.560;9.710;2023-04-23T08:51:42;0.20;;;0.20;;
16466;SDS011;8344;47.560;9.710;2023-04-23T08:54:14;0.20;;;0.20;;
16466;SDS011;8344;47.560;9.710;2023-04-23T08:56:40;0.38;;;0.38;;
16466;SDS011;8344;47.560;9.710;2023-04-23T08:59:06;0.20;;;0.20;;
16466;SDS011;8344;47.560;9.710;2023-04-23T09:01:31;0.30;;;0.30;;
16466;SDS011;8344;47.560;9.710;2023-04-23T09:03:57;0.30;;;0.30;;
16466;SDS011;8344;47.560;9.710;2023-04-23T09:06:24;0.20;;;0.20;;
16466;SDS011;8344;47.560;9.710;2023-04-23T09:08:50;0.30;;;0.30;;
16466;SDS011;8344;47.560;9.710;2023-04-23T09:11:17;0.22;;;0.22;;
16466;SDS011;8344;47.560;9.710;2023-04-23T09:13:42;0.30;;;0.30;;
16466;SDS011;8344;47.560;9.710;2023-04-23T09:16:08;0.30;;;0.30;;
16466;SDS011;8344;47.560;9.710;2023-04-23T09:18:34;0.40;;;0.40;;
16466;SDS011;8344;47.560;9.710;2023-04-23T09:21:00;0.28;;;0.28;;
16466;SDS011;8344;47.560;9.710;2023-04-23T09:23:27;0.25;;;0.25;;
16466;SDS011;8344;47.560;9.710;2023-04-23T09:25:52;0.35;;;0.35;;
16466;SDS011;8344;47.560;9.710;2023-04-23T09:28:18;0.20;;;0.20;;
16466;SDS011;8344;47.560;9.710;2023-04-23T09:30:44;0.20;;;0.20;;
16466;SDS011;8344;47.560;9.710;2023-04-23T09:33:10;0.20;;;0.20;;
16466;SDS011;8344;47.560;9.710;2023-04-23T09:35:36;0.30;;;0.30;;
16466;SDS011;8344;47.560;9.710;2023-04-23T09:38:02;0.30;;;0.30;;
16466;SDS011;8344;47.560;9.710;2023-04-23T09:40:31;0.20;;;0.20;;
16466;SDS011;8344;47.560;9.710;2023-04-23T09:42:57;0.30;;;0.30;;
16466;SDS011;8344;47.560;9.710;2023-04-23T09:45:22;0.30;;;0.30;;
16466;SDS011;8344;47.560;9.710;2023-04-23T09:47:53;0.20;;;0.20;;
16466;SDS011;8344;47.560;9.710;2023-04-23T09:52:58;0.30;;;0.30;;
16466;SDS011;8344;47.560;9.710;2023-04-23T09:55:30;0.20;;;0.20;;
16466;SDS011;8344;47.560;9.710;2023-04-23T09:57:59;0.20;;;0.20;;
16466;SDS011;8344;47.560;9.710;2023-04-23T10:00:25;0.28;;;0.28;;
16466;SDS011;8344;47.560;9.710;2023-04-23T10:02:57;0.20;;;0.20;;
16466;SDS011;8344;47.560;9.710;2023-04-23T10:05:23;0.10;;;0.10;;
16466;SDS011;8344;47.560;9.710;2023-04-23T10:07:49;0.13;;;0.13;;
16466;SDS011;8344;47.560;9.710;2023-04-23T10:10:14;0.17;;;0.17;;
16466;SDS011;8344;47.560;9.710;2023-04-23T10:12:41;0.30;;;0.30;;
16466;SDS011;8344;47.560;9.710;2023-04-23T10:15:06;0.20;;;0.20;;
16466;SDS011;8344;47.560;9.710;2023-04-23T10:17:36;0.20;;;0.20;;
16466;SDS011;8344;47.560;9.710;2023-04-23T10:20:02;0.20;;;0.20;;
16466;SDS011;8344;47.560;9.710;2023-04-23T10:22:29;0.30;;;0.30;;
16466;SDS011;8344;47.560;9.710;2023-04-23T10:24:55;0.20;;;0.20;;
16466;SDS011;8344;47.560;9.710;2023-04-23T10:27:28;0.20;;;0.20;;
16466;SDS011;8344;47.560;9.710;2023-04-23T10:29:56;0.20;;;0.20;;
16466;SDS011;8344;47.560;9.710;2023-04-23T10:32:21;0.13;;;0.13;;
16466;SDS011;8344;47.560;9.710;2023-04-23T10:34:47;0.20;;;0.20;;
16466;SDS011;8344;47.560;9.710;2023-04-23T10:37:13;0.20;;;0.20;;
16466;SDS011;8344;47.560;9.710;2023-04-23T10:39:43;0.20;;;0.20;;
16466;SDS011;8344;47.560;9.710;2023-04-23T10:42:10;0.10;;;0.10;;
16466;SDS011;8344;47.560;9.710;2023-04-23T10:44:38;0.17;;;0.17;;
16466;SDS011;8344;47.560;9.710;2023-04-23T10:47:04;0.20;;;0.20;;
16466;SDS011;8344;47.560;9.710;2023-04-23T10:49:33;0.20;;;0.20;;
16466;SDS011;8344;47.560;9.710;2023-04-23T10:52:02;0.20;;;0.20;;
16466;SDS011;8344;47.560;9.710;2023-04-23T10:54:33;0.20;;;0.20;;
16466;SDS011;8344;47.560;9.710;2023-04-23T10:57:00;0.20;;;0.20;;
16466;SDS011;8344;47.560;9.710;2023-04-23T10:59:31;0.10;;;0.10;;
16466;SDS011;8344;47.560;9.710;2023-04-23T11:01:58;0.22;;;0.22;;
16466;SDS011;8344;47.560;9.710;2023-04-23T11:04:29;0.30;;;0.30;;
16466;SDS011;8344;47.560;9.710;2023-04-23T11:06:56;0.28;;;0.28;;
16466;SDS011;8344;47.560;9.710;2023-04-23T11:14:51;0.30;;;0.30;;
16466;SDS011;8344;47.560;9.710;2023-04-23T11:18:00;0.20;;;0.20;;
16466;SDS011;8344;47.560;9.710;2023-04-23T11:20:17;0.20;;;0.20;;
16466;SDS011;8344;47.560;9.710;2023-04-23T11:22:52;0.17;;;0.17;;
16466;SDS011;8344;47.560;9.710;2023-04-23T11:25:18;0.20;;;0.20;;
16466;SDS011;8344;47.560;9.710;2023-04-23T11:27:45;0.17;;;0.17;;
16466;SDS011;8344;47.560;9.710;2023-04-23T11:32:37;0.10;;;0.10;;
16466;SDS011;8344;47.560;9.710;2023-04-23T11:35:04;0.20;;;0.20;;
16466;SDS011;8344;47.560;9.710;2023-04-23T11:37:31;0.20;;;0.20;;
16466;SDS011;8344;47.560;9.710;2023-04-23T11:39:57;0.28;;;0.28;;
16466;SDS011;8344;47.560;9.710;2023-04-23T11:42:30;0.25;;;0.25;;
16466;SDS011;8344;47.560;9.710;2023-04-23T11:44:55;0.20;;;0.20;;
16466;SDS011;8344;47.560;9.710;2023-04-23T11:47:21;0.20;;;0.20;;
16466;SDS011;8344;47.560;9.710;2023-04-23T11:49:49;0.20;;;0.20;;
16466;SDS011;8344;47.560;9.710;2023-04-23T11:52:15;0.20;;;0.20;;
16466;SDS011;8344;47.560;9.710;2023-04-23T11:54:40;0.20;;;0.20;;
16466;SDS011;8344;47.560;9.710;2023-04-23T11:57:06;0.10;;;0.10;;
16466;SDS011;8344;47.560;9.710;2023-04-23T11:59:32;0.10;;;0.10;;
16466;SDS011;8344;47.560;9.710;2023-04-23T12:01:58;0.20;;;0.20;;
16466;SDS011;8344;47.560;9.710;2023-04-23T12:04:25;0.10;;;0.10;;
16466;SDS011;8344;47.560;9.710;2023-04-23T12:06:51;0.20;;;0.20;;
16466;SDS011;8344;47.560;9.710;2023-04-23T12:09:18;0.20;;;0.20;;
16466;SDS011;8344;47.560;9.710;2023-04-23T12:11:45;0.20;;;0.20;;
16466;SDS011;8344;47.560;9.710;2023-04-23T12:14:11;0.20;;;0.20;;
16466;SDS011;8344;47.560;9.710;2023-04-23T12:16:38;0.20;;;0.20;;
16466;SDS011;8344;47.560;9.710;2023-04-23T12:19:08;0.20;;;0.20;;
16466;SDS011;8344;47.560;9.710;2023-04-23T12:24:22;0.20;;;0.20;;
16466;SDS011;8344;47.560;9.710;2023-04-23T12:26:52;0.30;;;0.30;;
16466;SDS011;8344;47.560;9.710;2023-04-23T12:29:20;0.20;;;0.20;;
16466;SDS011;8344;47.560;9.710;2023-04-23T12:31:47;0.10;;;0.10;;
16466;SDS011;8344;47.560;9.710;2023-04-23T12:34:13;0.20;;;0.20;;
16466;SDS011;8344;47.560;9.710;2023-04-23T12:36:49;0.20;;;0.20;;
16466;SDS011;8344;47.560;9.710;2023-04-23T12:41:57;0.20;;;0.20;;
16466;SDS011;8344;47.560;9.710;2023-04-23T12:44:26;0.10;;;0.10;;
16466;SDS011;8344;47.560;9.710;2023-04-23T12:46:55;0.25;;;0.25;;
16466;SDS011;8344;47.560;9.710;2023-04-23T12:49:35;0.15;;;0.15;;
16466;SDS011;8344;47.560;9.710;2023-04-23T12:52:03;0.28;;;0.28;;
16466;SDS011;8344;47.560;9.710;2023-04-23T12:54:33;0.20;;;0.20;;
16466;SDS011;8344;47.560;9.710;2023-04-23T12:57:01;0.20;;;0.20;;
16466;SDS011;8344;47.560;9.710;2023-04-23T12:59:26;0.20;;;0.20;;
16466;SDS011;8344;47.560;9.710;2023-04-23T13:01:52;0.20;;;0.20;;
16466;SDS011;8344;47.560;9.710;2023-04-23T13:04:17;0.20;;;0.20;;
16466;SDS011;8344;47.560;9.710;2023-04-23T13:06:43;0.20;;;0.20;;
16466;SDS011;8344;47.560;9.710;2023-04-23T13:09:08;0.20;;;0.20;;
16466;SDS011;8344;47.560;9.710;2023-04-23T13:11:40;0.20;;;0.20;;
16466;SDS011;8344;47.560;9.710;2023-04-23T13:14:05;0.20;;;0.20;;
16466;SDS011;8344;47.560;9.710;2023-04-23T13:16:32;0.20;;;0.20;;
16466;SDS011;8344;47.560;9.710;2023-04-23T13:18:58;0.20;;;0.20;;
16466;SDS011;8344;47.560;9.710;2023-04-23T13:21:24;0.20;;;0.20;;
16466;SDS011;8344;47.560;9.710;2023-04-23T13:23:49;0.20;;;0.20;;
16466;SDS011;8344;47.560;9.710;2023-04-23T13:26:15;0.15;;;0.15;;
16466;SDS011;8344;47.560;9.710;2023-04-23T13:28:40;0.20;;;0.20;;
16466;SDS011;8344;47.560;9.710;2023-04-23T13:31:06;0.20;;;0.20;;
16466;SDS011;8344;47.560;9.710;2023-04-23T13:33:31;0.20;;;0.20;;
16466;SDS011;8344;47.560;9.710;2023-04-23T13:35:57;0.30;;;0.30;;
16466;SDS011;8344;47.560;9.710;2023-04-23T13:38:24;0.20;;;0.20;;
16466;SDS011;8344;47.560;9.710;2023-04-23T13:40:50;0.30;;;0.30;;
16466;SDS011;8344;47.560;9.710;2023-04-23T13:43:16;0.20;;;0.20;;
16466;SDS011;8344;47.560;9.710;2023-04-23T13:45:41;0.20;;;0.20;;
16466;SDS011;8344;47.560;9.710;2023-04-23T13:48:06;0.30;;;0.30;;
16466;SDS011;8344;47.560;9.710;2023-04-23T13:50:32;0.10;;;0.10;;
16466;SDS011;8344;47.560;9.710;2023-04-23T13:52:57;0.20;;;0.20;;
16466;SDS011;8344;47.560;9.710;2023-04-23T13:55:23;0.20;;;0.20;;
16466;SDS011;8344;47.560;9.710;2023-04-23T13:57:48;0.20;;;0.20;;
16466;SDS011;8344;47.560;9.710;2023-04-23T14:00:13;0.13;;;0.13;;
16466;SDS011;8344;47.560;9.710;2023-04-23T14:02:39;0.20;;;0.20;;
16466;SDS011;8344;47.560;9.710;2023-04-23T14:05:05;0.20;;;0.20;;
16466;SDS011;8344;47.560;9.710;2023-04-23T14:07:33;0.10;;;0.10;;
16466;SDS011;8344;47.560;9.710;2023-04-23T14:09:58;0.20;;;0.20;;
16466;SDS011;8344;47.560;9.710;2023-04-23T14:12:23;0.20;;;0.20;;
16466;SDS011;8344;47.560;9.710;2023-04-23T14:14:50;0.30;;;0.30;;
16466;SDS011;8344;47.560;9.710;2023-04-23T14:17:16;0.20;;;0.20;;
16466;SDS011;8344;47.560;9.710;2023-04-23T14:19:41;0.10;;;0.10;;
16466;SDS011;8344;47.560;9.710;2023-04-23T14:22:06;0.28;;;0.28;;
16466;SDS011;8344;47.560;9.710;2023-04-23T14:24:32;0.17;;;0.17;;
16466;SDS011;8344;47.560;9.710;2023-04-23T14:26:58;0.20;;;0.20;;
16466;SDS011;8344;47.560;9.710;2023-04-23T14:32:11;0.20;;;0.20;;
16466;SDS011;8344;47.560;9.710;2023-04-23T14:34:37;0.20;;;0.20;;
16466;SDS011;8344;47.560;9.710;2023-04-23T14:37:02;0.20;;;0.20;;
16466;SDS011;8344;47.560;9.710;2023-04-23T14:39:28;0.10;;;0.10;;
16466;SDS011;8344;47.560;9.710;2023-04-23T14:41:53;0.20;;;0.20;;
16466;SDS011;8344;47.560;9.710;2023-04-23T14:44:19;0.20;;;0.20;;
16466;SDS011;8344;47.560;9.710;2023-04-23T14:46:47;0.20;;;0.20;;
16466;SDS011;8344;47.560;9.710;2023-04-23T14:49:14;0.20;;;0.20;;
16466;SDS011;8344;47.560;9.710;2023-04-23T14:51:40;0.20;;;0.20;;
16466;SDS011;8344;47.560;9.710;2023-04-23T14:54:06;0.20;;;0.20;;
16466;SDS011;8344;47.560;9.710;2023-04-23T14:56:31;0.20;;;0.20;;
16466;SDS011;8344;47.560;9.710;2023-04-23T14:58:56;0.20;;;0.20;;
16466;SDS011;8344;47.560;9.710;2023-04-23T15:01:22;0.20;;;0.20;;
16466;SDS011;8344;47.560;9.710;2023-04-23T15:03:48;0.30;;;0.30;;
16466;SDS011;8344;47.560;9.710;2023-04-23T15:06:13;0.30;;;0.30;;
16466;SDS011;8344;47.560;9.710;2023-04-23T15:08:38;0.20;;;0.20;;
16466;SDS011;8344;47.560;9.710;2023-04-23T15:11:04;0.20;;;0.20;;
16466;SDS011;8344;47.560;9.710;2023-04-23T15:16:28;0.30;;;0.30;;